sensor_id;sensor_type;location;lat;lon;timestamp;P1;durP1;ratioP1;P2;durP2;ratioP2
45944;SDS011;31655;48.972;10.686;2024-02-26T00:01:58;11.77;;;7.43;;
45944;SDS011;31655;48.972;10.686;2024-02-26T00:04:23;11.05;;;7.00;;
45944;SDS011;31655;48.972;10.686;2024-02-26T00:06:49;11.98;;;7.03;;
45944;SDS011;31655;48.972;10.686;2024-02-26T00:09:16;12.82;;;6.95;;
45944;SDS011;31655;48.972;10.686;2024-02-26T00:11:41;13.07;;;7.28;;
45944;SDS011;31655;48.972;10.686;2024-02-26T00:14:10;12.00;;;7.05;;
45944;SDS011;31655;48.972;10.686;2024-02-26T00:16:36;11.68;;;7.07;;
45944;SDS011;31655;48.972;10.686;2024-02-26T00:19:02;12.57;;;6.75;;
45944;SDS011;31655;48.972;10.686;2024-02-26T00:21:27;13.30;;;7.55;;
45944;SDS011;31655;48.972;10.686;2024-02-26T00:23:53;9.82;;;6.28;;
45944;SDS011;31655;48.972;10.686;2024-02-26T00:26:19;12.63;;;7.45;;
45944;SDS011;31655;48.972;10.686;2024-02-26T00:28:44;13.48;;;8.13;;
45944;SDS011;31655;48.972;10.686;2024-02-26T00:31:10;15.52;;;8.13;;
45944;SDS011;31655;48.972;10.686;2024-02-26T00:33:36;15.95;;;8.23;;
45944;SDS011;31655;48.972;10.686;2024-02-26T00:36:02;15.93;;;8.68;;
45944;SDS011;31655;48.972;10.686;2024-02-26T00:38:27;15.75;;;9.55;;
45944;SDS011;31655;48.972;10.686;2024-02-26T00:40:53;18.60;;;8.38;;
45944;SDS011;31655;48.972;10.686;2024-02-26T00:43:19;19.60;;;7.90;;
45944;SDS011;31655;48.972;10.686;2024-02-26T00:45:45;16.10;;;7.95;;
45944;SDS011;31655;48.972;10.686;2024-02-26T00:48:12;15.23;;;8.55;;
45944;SDS011;31655;48.972;10.686;2024-02-26T00:50:38;14.70;;;8.15;;
45944;SDS011;31655;48.972;10.686;2024-02-26T00:53:05;15.45;;;8.38;;
45944;SDS011;31655;48.972;10.686;2024-02-26T00:55:31;17.98;;;8.02;;
45944;SDS011;31655;48.972;10.686;2024-02-26T00:57:59;13.13;;;7.05;;
45944;SDS011;31655;48.972;10.686;2024-02-26T01:00:26;13.65;;;8.30;;
45944;SDS011;31655;48.972;10.686;2024-02-26T01:02:52;15.60;;;7.97;;
45944;SDS011;31655;48.972;10.686;2024-02-26T01:05:18;14.25;;;7.57;;
45944;SDS011;31655;48.972;10.686;2024-02-26T01:07:43;18.65;;;8.00;;
45944;SDS011;31655;48.972;10.686;2024-02-26T01:10:09;14.50;;;8.25;;
45944;SDS011;31655;48.972;10.686;2024-02-26T01:12:35;16.20;;;7.68;;
45944;SDS011;31655;48.972;10.686;2024-02-26T01:15:01;12.45;;;7.22;;
45944;SDS011;31655;48.972;10.686;2024-02-26T01:17:30;12.23;;;7.50;;
45944;SDS011;31655;48.972;10.686;2024-02-26T01:19:56;13.88;;;7.50;;
45944;SDS011;31655;48.972;10.686;2024-02-26T01:22:21;13.95;;;7.60;;
45944;SDS011;31655;48.972;10.686;2024-02-26T01:24:47;16.13;;;7.88;;
45944;SDS011;31655;48.972;10.686;2024-02-26T01:27:13;13.52;;;7.38;;
45944;SDS011;31655;48.972;10.686;2024-02-26T01:29:40;15.65;;;8.45;;
45944;SDS011;31655;48.972;10.686;2024-02-26T01:32:06;13.73;;;7.65;;
45944;SDS011;31655;48.972;10.686;2024-02-26T01:34:31;12.60;;;7.45;;
45944;SDS011;31655;48.972;10.686;2024-02-26T01:36:59;13.32;;;7.53;;
45944;SDS011;31655;48.972;10.686;2024-02-26T01:39:25;16.02;;;8.23;;
45944;SDS011;31655;48.972;10.686;2024-02-26T01:41:52;12.88;;;7.68;;
45944;SDS011;31655;48.972;10.686;2024-02-26T01:44:18;11.90;;;7.32;;
45944;SDS011;31655;48.972;10.686;2024-02-26T01:46:43;14.57;;;8.55;;
45944;SDS011;31655;48.972;10.686;2024-02-26T01:49:09;13.85;;;6.80;;
45944;SDS011;31655;48.972;10.686;2024-02-26T01:51:37;12.07;;;7.00;;
45944;SDS011;31655;48.972;10.686;2024-02-26T01:54:05;12.55;;;7.47;;
45944;SDS011;31655;48.972;10.686;2024-02-26T01:56:32;11.60;;;6.00;;
45944;SDS011;31655;48.972;10.686;2024-02-26T01:59:00;10.23;;;6.22;;
45944;SDS011;31655;48.972;10.686;2024-02-26T02:01:27;11.52;;;6.38;;
45944;SDS011;31655;48.972;10.686;2024-02-26T02:03:54;9.10;;;5.72;;
45944;SDS011;31655;48.972;10.686;2024-02-26T02:06:22;10.43;;;5.90;;
45944;SDS011;31655;48.972;10.686;2024-02-26T02:08:48;11.02;;;7.00;;
45944;SDS011;31655;48.972;10.686;2024-02-26T02:11:14;11.68;;;6.75;;
45944;SDS011;31655;48.972;10.686;2024-02-26T02:13:40;11.65;;;6.22;;
45944;SDS011;31655;48.972;10.686;2024-02-26T02:16:06;15.05;;;6.75;;
45944;SDS011;31655;48.972;10.686;2024-02-26T02:18:32;9.88;;;5.75;;
45944;SDS011;31655;48.972;10.686;2024-02-26T02:20:59;8.70;;;5.63;;
45944;SDS011;31655;48.972;10.686;2024-02-26T02:23:25;12.50;;;6.47;;
45944;SDS011;31655;48.972;10.686;2024-02-26T02:25:51;9.50;;;6.07;;
45944;SDS011;31655;48.972;10.686;2024-02-26T02:28:17;10.88;;;6.30;;
45944;SDS011;31655;48.972;10.686;2024-02-26T02:30:43;11.80;;;6.50;;
45944;SDS011;31655;48.972;10.686;2024-02-26T02:33:09;10.63;;;6.65;;
45944;SDS011;31655;48.972;10.686;2024-02-26T02:35:36;11.85;;;6.10;;
45944;SDS011;31655;48.972;10.686;2024-02-26T02:38:02;10.50;;;5.90;;
45944;SDS011;31655;48.972;10.686;2024-02-26T02:40:28;10.25;;;6.15;;
45944;SDS011;31655;48.972;10.686;2024-02-26T02:42:53;14.70;;;8.90;;
45944;SDS011;31655;48.972;10.686;2024-02-26T02:45:19;10.40;;;5.68;;
45944;SDS011;31655;48.972;10.686;2024-02-26T02:47:45;9.82;;;5.60;;
45944;SDS011;31655;48.972;10.686;2024-02-26T02:50:10;13.75;;;7.25;;
45944;SDS011;31655;48.972;10.686;2024-02-26T02:52:36;13.38;;;5.95;;
45944;SDS011;31655;48.972;10.686;2024-02-26T02:55:01;14.05;;;6.03;;
45944;SDS011;31655;48.972;10.686;2024-02-26T02:57:27;10.85;;;6.18;;
45944;SDS011;31655;48.972;10.686;2024-02-26T02:59:53;11.00;;;5.82;;
45944;SDS011;31655;48.972;10.686;2024-02-26T03:02:19;10.90;;;6.00;;
45944;SDS011;31655;48.972;10.686;2024-02-26T03:04:45;11.93;;;5.68;;
45944;SDS011;31655;48.972;10.686;2024-02-26T03:07:11;10.40;;;5.80;;
45944;SDS011;31655;48.972;10.686;2024-02-26T03:09:37;9.65;;;6.00;;
45944;SDS011;31655;48.972;10.686;2024-02-26T03:12:02;9.55;;;5.05;;
45944;SDS011;31655;48.972;10.686;2024-02-26T03:14:28;7.60;;;5.18;;
45944;SDS011;31655;48.972;10.686;2024-02-26T03:16:54;9.27;;;4.60;;
45944;SDS011;31655;48.972;10.686;2024-02-26T03:19:20;7.93;;;5.22;;
45944;SDS011;31655;48.972;10.686;2024-02-26T03:21:46;8.32;;;5.03;;
45944;SDS011;31655;48.972;10.686;2024-02-26T03:24:11;7.70;;;4.97;;
45944;SDS011;31655;48.972;10.686;2024-02-26T03:26:37;9.65;;;5.55;;
45944;SDS011;31655;48.972;10.686;2024-02-26T03:29:03;8.25;;;4.97;;
45944;SDS011;31655;48.972;10.686;2024-02-26T03:31:29;9.05;;;5.43;;
45944;SDS011;31655;48.972;10.686;2024-02-26T03:33:54;13.57;;;6.80;;
45944;SDS011;31655;48.972;10.686;2024-02-26T03:36:23;12.65;;;5.80;;
45944;SDS011;31655;48.972;10.686;2024-02-26T03:38:49;21.48;;;9.48;;
45944;SDS011;31655;48.972;10.686;2024-02-26T03:41:14;32.42;;;13.23;;
45944;SDS011;31655;48.972;10.686;2024-02-26T03:43:40;46.30;;;16.10;;
45944;SDS011;31655;48.972;10.686;2024-02-26T03:46:09;80.15;;;28.80;;
45944;SDS011;31655;48.972;10.686;2024-02-26T03:48:38;10.52;;;5.63;;
45944;SDS011;31655;48.972;10.686;2024-02-26T03:51:08;9.90;;;6.05;;
45944;SDS011;31655;48.972;10.686;2024-02-26T03:53:34;9.32;;;5.88;;
45944;SDS011;31655;48.972;10.686;2024-02-26T03:56:04;13.25;;;5.88;;
45944;SDS011;31655;48.972;10.686;2024-02-26T03:58:31;10.10;;;6.25;;
45944;SDS011;31655;48.972;10.686;2024-02-26T04:00:57;22.92;;;11.50;;
45944;SDS011;31655;48.972;10.686;2024-02-26T04:03:23;16.92;;;8.05;;
45944;SDS011;31655;48.972;10.686;2024-02-26T04:05:49;19.38;;;9.98;;
45944;SDS011;31655;48.972;10.686;2024-02-26T04:08:14;10.15;;;5.80;;
45944;SDS011;31655;48.972;10.686;2024-02-26T04:10:40;14.30;;;7.22;;
45944;SDS011;31655;48.972;10.686;2024-02-26T04:13:07;20.10;;;10.93;;
45944;SDS011;31655;48.972;10.686;2024-02-26T04:15:32;13.57;;;7.47;;
45944;SDS011;31655;48.972;10.686;2024-02-26T04:17:58;15.13;;;8.55;;
45944;SDS011;31655;48.972;10.686;2024-02-26T04:20:24;12.43;;;7.68;;
45944;SDS011;31655;48.972;10.686;2024-02-26T04:22:49;15.65;;;8.30;;
45944;SDS011;31655;48.972;10.686;2024-02-26T04:25:15;13.80;;;8.68;;
45944;SDS011;31655;48.972;10.686;2024-02-26T04:27:40;15.82;;;8.30;;
45944;SDS011;31655;48.972;10.686;2024-02-26T04:30:06;14.63;;;8.65;;
45944;SDS011;31655;48.972;10.686;2024-02-26T04:32:32;15.98;;;9.05;;
45944;SDS011;31655;48.972;10.686;2024-02-26T04:34:59;14.05;;;7.18;;
45944;SDS011;31655;48.972;10.686;2024-02-26T04:37:27;12.93;;;7.68;;
45944;SDS011;31655;48.972;10.686;2024-02-26T04:39:58;17.40;;;9.02;;
45944;SDS011;31655;48.972;10.686;2024-02-26T04:42:25;13.90;;;7.22;;
45944;SDS011;31655;48.972;10.686;2024-02-26T04:44:51;11.10;;;6.50;;
45944;SDS011;31655;48.972;10.686;2024-02-26T04:47:16;12.98;;;6.68;;
45944;SDS011;31655;48.972;10.686;2024-02-26T04:49:42;11.20;;;6.85;;
45944;SDS011;31655;48.972;10.686;2024-02-26T04:52:07;11.65;;;7.20;;
45944;SDS011;31655;48.972;10.686;2024-02-26T04:54:33;15.00;;;6.97;;
45944;SDS011;31655;48.972;10.686;2024-02-26T04:56:59;11.68;;;7.03;;
45944;SDS011;31655;48.972;10.686;2024-02-26T04:59:24;15.68;;;6.75;;
45944;SDS011;31655;48.972;10.686;2024-02-26T05:01:50;14.45;;;7.25;;
45944;SDS011;31655;48.972;10.686;2024-02-26T05:04:17;17.52;;;8.55;;
45944;SDS011;31655;48.972;10.686;2024-02-26T05:06:43;12.93;;;7.50;;
45944;SDS011;31655;48.972;10.686;2024-02-26T05:09:09;13.85;;;7.78;;
45944;SDS011;31655;48.972;10.686;2024-02-26T05:11:34;16.58;;;8.95;;
45944;SDS011;31655;48.972;10.686;2024-02-26T05:14:00;15.02;;;8.43;;
45944;SDS011;31655;48.972;10.686;2024-02-26T05:16:26;14.57;;;8.23;;
45944;SDS011;31655;48.972;10.686;2024-02-26T05:18:52;14.07;;;7.85;;
45944;SDS011;31655;48.972;10.686;2024-02-26T05:21:18;15.32;;;8.50;;
45944;SDS011;31655;48.972;10.686;2024-02-26T05:23:43;10.30;;;6.60;;
45944;SDS011;31655;48.972;10.686;2024-02-26T05:26:10;17.05;;;8.63;;
45944;SDS011;31655;48.972;10.686;2024-02-26T05:28:35;18.40;;;8.23;;
45944;SDS011;31655;48.972;10.686;2024-02-26T05:31:04;13.93;;;7.93;;
45944;SDS011;31655;48.972;10.686;2024-02-26T05:33:30;19.17;;;10.15;;
45944;SDS011;31655;48.972;10.686;2024-02-26T05:35:55;18.45;;;9.95;;
45944;SDS011;31655;48.972;10.686;2024-02-26T05:38:21;13.95;;;7.07;;
45944;SDS011;31655;48.972;10.686;2024-02-26T05:40:46;11.43;;;6.88;;
45944;SDS011;31655;48.972;10.686;2024-02-26T05:43:12;11.63;;;6.88;;
45944;SDS011;31655;48.972;10.686;2024-02-26T05:45:40;10.48;;;6.55;;
45944;SDS011;31655;48.972;10.686;2024-02-26T05:48:07;13.52;;;6.93;;
45944;SDS011;31655;48.972;10.686;2024-02-26T05:50:32;13.48;;;7.63;;
45944;SDS011;31655;48.972;10.686;2024-02-26T05:52:58;18.15;;;7.88;;
45944;SDS011;31655;48.972;10.686;2024-02-26T05:55:23;15.35;;;7.95;;
45944;SDS011;31655;48.972;10.686;2024-02-26T05:57:52;12.60;;;6.55;;
45944;SDS011;31655;48.972;10.686;2024-02-26T06:00:18;16.58;;;8.25;;
45944;SDS011;31655;48.972;10.686;2024-02-26T06:02:44;16.25;;;7.85;;
45944;SDS011;31655;48.972;10.686;2024-02-26T06:05:09;16.55;;;7.95;;
45944;SDS011;31655;48.972;10.686;2024-02-26T06:07:35;15.30;;;9.00;;
45944;SDS011;31655;48.972;10.686;2024-02-26T06:10:01;14.93;;;8.65;;
45944;SDS011;31655;48.972;10.686;2024-02-26T06:12:27;18.58;;;8.82;;
45944;SDS011;31655;48.972;10.686;2024-02-26T06:14:55;17.40;;;9.50;;
45944;SDS011;31655;48.972;10.686;2024-02-26T06:17:21;16.73;;;9.63;;
45944;SDS011;31655;48.972;10.686;2024-02-26T06:19:47;16.00;;;8.07;;
45944;SDS011;31655;48.972;10.686;2024-02-26T06:22:12;17.23;;;9.43;;
45944;SDS011;31655;48.972;10.686;2024-02-26T06:24:38;14.40;;;8.07;;
45944;SDS011;31655;48.972;10.686;2024-02-26T06:27:03;16.30;;;8.32;;
45944;SDS011;31655;48.972;10.686;2024-02-26T06:29:29;12.10;;;8.45;;
45944;SDS011;31655;48.972;10.686;2024-02-26T06:31:55;25.73;;;11.63;;
45944;SDS011;31655;48.972;10.686;2024-02-26T06:34:20;27.00;;;13.73;;
45944;SDS011;31655;48.972;10.686;2024-02-26T06:36:46;16.48;;;8.32;;
45944;SDS011;31655;48.972;10.686;2024-02-26T06:39:12;14.43;;;9.27;;
45944;SDS011;31655;48.972;10.686;2024-02-26T06:41:38;14.57;;;8.07;;
45944;SDS011;31655;48.972;10.686;2024-02-26T06:44:04;20.75;;;9.50;;
45944;SDS011;31655;48.972;10.686;2024-02-26T06:46:30;17.95;;;10.40;;
45944;SDS011;31655;48.972;10.686;2024-02-26T06:48:56;22.63;;;10.95;;
45944;SDS011;31655;48.972;10.686;2024-02-26T06:51:22;16.45;;;8.98;;
45944;SDS011;31655;48.972;10.686;2024-02-26T06:53:47;17.42;;;9.70;;
45944;SDS011;31655;48.972;10.686;2024-02-26T06:56:14;14.35;;;8.00;;
45944;SDS011;31655;48.972;10.686;2024-02-26T06:58:39;16.48;;;7.55;;
45944;SDS011;31655;48.972;10.686;2024-02-26T07:01:05;16.20;;;7.95;;
45944;SDS011;31655;48.972;10.686;2024-02-26T07:03:33;9.57;;;5.80;;
45944;SDS011;31655;48.972;10.686;2024-02-26T07:05:58;10.52;;;6.38;;
45944;SDS011;31655;48.972;10.686;2024-02-26T07:08:24;13.00;;;5.95;;
45944;SDS011;31655;48.972;10.686;2024-02-26T07:10:49;12.70;;;6.28;;
45944;SDS011;31655;48.972;10.686;2024-02-26T07:13:15;12.57;;;7.43;;
45944;SDS011;31655;48.972;10.686;2024-02-26T07:15:40;10.52;;;5.15;;
45944;SDS011;31655;48.972;10.686;2024-02-26T07:18:06;10.73;;;5.38;;
45944;SDS011;31655;48.972;10.686;2024-02-26T07:20:32;8.55;;;5.50;;
45944;SDS011;31655;48.972;10.686;2024-02-26T07:22:58;11.52;;;5.57;;
45944;SDS011;31655;48.972;10.686;2024-02-26T07:25:23;9.63;;;5.55;;
45944;SDS011;31655;48.972;10.686;2024-02-26T07:27:50;10.05;;;5.95;;
45944;SDS011;31655;48.972;10.686;2024-02-26T07:30:15;10.98;;;5.82;;
45944;SDS011;31655;48.972;10.686;2024-02-26T07:32:42;12.65;;;6.40;;
45944;SDS011;31655;48.972;10.686;2024-02-26T07:35:08;17.10;;;8.13;;
45944;SDS011;31655;48.972;10.686;2024-02-26T07:37:33;9.23;;;5.38;;
45944;SDS011;31655;48.972;10.686;2024-02-26T07:39:59;12.90;;;7.43;;
45944;SDS011;31655;48.972;10.686;2024-02-26T07:42:25;9.27;;;5.55;;
45944;SDS011;31655;48.972;10.686;2024-02-26T07:44:51;9.80;;;5.28;;
45944;SDS011;31655;48.972;10.686;2024-02-26T07:47:17;8.60;;;4.45;;
45944;SDS011;31655;48.972;10.686;2024-02-26T07:49:43;9.48;;;5.15;;
45944;SDS011;31655;48.972;10.686;2024-02-26T07:52:09;9.30;;;5.07;;
45944;SDS011;31655;48.972;10.686;2024-02-26T07:54:35;18.63;;;8.13;;
45944;SDS011;31655;48.972;10.686;2024-02-26T07:57:01;10.25;;;5.68;;
45944;SDS011;31655;48.972;10.686;2024-02-26T07:59:30;21.13;;;8.20;;
45944;SDS011;31655;48.972;10.686;2024-02-26T08:01:56;30.13;;;16.02;;
45944;SDS011;31655;48.972;10.686;2024-02-26T08:04:21;44.78;;;20.45;;
45944;SDS011;31655;48.972;10.686;2024-02-26T08:06:47;11.32;;;6.20;;
45944;SDS011;31655;48.972;10.686;2024-02-26T08:09:12;13.85;;;6.60;;
45944;SDS011;31655;48.972;10.686;2024-02-26T08:11:38;6.63;;;4.70;;
45944;SDS011;31655;48.972;10.686;2024-02-26T08:14:04;21.45;;;10.35;;
45944;SDS011;31655;48.972;10.686;2024-02-26T08:16:30;24.85;;;10.68;;
45944;SDS011;31655;48.972;10.686;2024-02-26T08:18:55;17.13;;;8.27;;
45944;SDS011;31655;48.972;10.686;2024-02-26T08:21:21;11.68;;;6.15;;
45944;SDS011;31655;48.972;10.686;2024-02-26T08:23:46;11.18;;;6.72;;
45944;SDS011;31655;48.972;10.686;2024-02-26T08:26:12;16.45;;;7.55;;
45944;SDS011;31655;48.972;10.686;2024-02-26T08:28:38;10.45;;;5.40;;
45944;SDS011;31655;48.972;10.686;2024-02-26T08:31:03;8.55;;;5.07;;
45944;SDS011;31655;48.972;10.686;2024-02-26T08:33:30;8.07;;;5.35;;
45944;SDS011;31655;48.972;10.686;2024-02-26T08:35:55;36.78;;;18.02;;
45944;SDS011;31655;48.972;10.686;2024-02-26T08:38:21;25.23;;;14.80;;
45944;SDS011;31655;48.972;10.686;2024-02-26T08:40:48;11.75;;;5.57;;
45944;SDS011;31655;48.972;10.686;2024-02-26T08:43:14;12.18;;;5.80;;
45944;SDS011;31655;48.972;10.686;2024-02-26T08:45:39;8.07;;;4.60;;
45944;SDS011;31655;48.972;10.686;2024-02-26T08:48:05;8.75;;;5.47;;
45944;SDS011;31655;48.972;10.686;2024-02-26T08:50:31;10.00;;;5.43;;
45944;SDS011;31655;48.972;10.686;2024-02-26T08:52:56;7.00;;;4.60;;
45944;SDS011;31655;48.972;10.686;2024-02-26T08:55:22;8.60;;;4.38;;
45944;SDS011;31655;48.972;10.686;2024-02-26T08:57:48;5.03;;;4.07;;
45944;SDS011;31655;48.972;10.686;2024-02-26T09:00:14;5.68;;;3.75;;
45944;SDS011;31655;48.972;10.686;2024-02-26T09:02:45;6.88;;;3.90;;
45944;SDS011;31655;48.972;10.686;2024-02-26T09:05:12;6.30;;;3.72;;
45944;SDS011;31655;48.972;10.686;2024-02-26T09:07:38;5.10;;;3.47;;
45944;SDS011;31655;48.972;10.686;2024-02-26T09:10:04;5.30;;;3.80;;
45944;SDS011;31655;48.972;10.686;2024-02-26T09:12:30;5.55;;;3.40;;
45944;SDS011;31655;48.972;10.686;2024-02-26T09:14:56;6.50;;;4.25;;
45944;SDS011;31655;48.972;10.686;2024-02-26T09:17:22;5.85;;;3.95;;
45944;SDS011;31655;48.972;10.686;2024-02-26T09:19:48;5.65;;;4.10;;
45944;SDS011;31655;48.972;10.686;2024-02-26T09:22:14;5.68;;;3.30;;
45944;SDS011;31655;48.972;10.686;2024-02-26T09:24:39;5.43;;;3.80;;
45944;SDS011;31655;48.972;10.686;2024-02-26T09:27:05;8.30;;;5.00;;
45944;SDS011;31655;48.972;10.686;2024-02-26T09:29:31;7.47;;;4.40;;
45944;SDS011;31655;48.972;10.686;2024-02-26T09:31:57;8.15;;;5.50;;
45944;SDS011;31655;48.972;10.686;2024-02-26T09:34:22;10.18;;;5.18;;
45944;SDS011;31655;48.972;10.686;2024-02-26T09:36:48;11.52;;;5.88;;
45944;SDS011;31655;48.972;10.686;2024-02-26T09:39:14;10.20;;;5.40;;
45944;SDS011;31655;48.972;10.686;2024-02-26T09:41:45;9.45;;;5.55;;
45944;SDS011;31655;48.972;10.686;2024-02-26T09:44:10;7.32;;;4.30;;
45944;SDS011;31655;48.972;10.686;2024-02-26T09:46:37;6.63;;;4.18;;
45944;SDS011;31655;48.972;10.686;2024-02-26T09:49:03;7.03;;;3.97;;
45944;SDS011;31655;48.972;10.686;2024-02-26T09:51:30;5.80;;;4.07;;
45944;SDS011;31655;48.972;10.686;2024-02-26T09:53:57;5.28;;;3.53;;
45944;SDS011;31655;48.972;10.686;2024-02-26T09:56:26;5.15;;;2.75;;
45944;SDS011;31655;48.972;10.686;2024-02-26T09:58:52;5.88;;;3.72;;
45944;SDS011;31655;48.972;10.686;2024-02-26T10:01:21;5.25;;;3.42;;
45944;SDS011;31655;48.972;10.686;2024-02-26T10:03:52;8.32;;;5.18;;
45944;SDS011;31655;48.972;10.686;2024-02-26T10:06:20;10.40;;;5.38;;
45944;SDS011;31655;48.972;10.686;2024-02-26T10:08:46;6.22;;;4.07;;
45944;SDS011;31655;48.972;10.686;2024-02-26T10:11:13;5.53;;;3.33;;
45944;SDS011;31655;48.972;10.686;2024-02-26T10:13:40;7.10;;;4.30;;
45944;SDS011;31655;48.972;10.686;2024-02-26T10:16:06;6.40;;;3.85;;
45944;SDS011;31655;48.972;10.686;2024-02-26T10:18:46;7.68;;;4.13;;
45944;SDS011;31655;48.972;10.686;2024-02-26T10:21:12;7.88;;;3.92;;
45944;SDS011;31655;48.972;10.686;2024-02-26T10:23:39;6.85;;;4.05;;
45944;SDS011;31655;48.972;10.686;2024-02-26T10:26:04;18.83;;;7.70;;
45944;SDS011;31655;48.972;10.686;2024-02-26T10:28:30;5.88;;;3.72;;
45944;SDS011;31655;48.972;10.686;2024-02-26T10:30:56;4.05;;;2.45;;
45944;SDS011;31655;48.972;10.686;2024-02-26T10:33:21;4.50;;;2.00;;
45944;SDS011;31655;48.972;10.686;2024-02-26T10:35:47;3.38;;;2.00;;
45944;SDS011;31655;48.972;10.686;2024-02-26T10:38:13;7.00;;;3.25;;
45944;SDS011;31655;48.972;10.686;2024-02-26T10:40:41;2.78;;;2.05;;
45944;SDS011;31655;48.972;10.686;2024-02-26T10:43:07;3.15;;;1.70;;
45944;SDS011;31655;48.972;10.686;2024-02-26T10:45:33;3.97;;;2.05;;
45944;SDS011;31655;48.972;10.686;2024-02-26T10:47:59;3.65;;;2.35;;
45944;SDS011;31655;48.972;10.686;2024-02-26T10:50:25;4.88;;;2.88;;
45944;SDS011;31655;48.972;10.686;2024-02-26T10:52:51;3.10;;;2.17;;
45944;SDS011;31655;48.972;10.686;2024-02-26T10:55:19;3.00;;;1.45;;
45944;SDS011;31655;48.972;10.686;2024-02-26T10:57:46;7.70;;;3.55;;
45944;SDS011;31655;48.972;10.686;2024-02-26T11:00:15;5.85;;;1.70;;
45944;SDS011;31655;48.972;10.686;2024-02-26T11:02:41;2.00;;;1.40;;
45944;SDS011;31655;48.972;10.686;2024-02-26T11:05:09;2.83;;;1.83;;
45944;SDS011;31655;48.972;10.686;2024-02-26T11:07:37;3.05;;;1.50;;
45944;SDS011;31655;48.972;10.686;2024-02-26T11:10:04;2.25;;;1.42;;
45944;SDS011;31655;48.972;10.686;2024-02-26T11:12:31;2.58;;;1.50;;
45944;SDS011;31655;48.972;10.686;2024-02-26T11:14:58;4.82;;;3.17;;
45944;SDS011;31655;48.972;10.686;2024-02-26T11:17:26;5.45;;;4.40;;
45944;SDS011;31655;48.972;10.686;2024-02-26T11:19:56;7.22;;;4.60;;
45944;SDS011;31655;48.972;10.686;2024-02-26T11:22:25;5.03;;;3.90;;
45944;SDS011;31655;48.972;10.686;2024-02-26T11:24:54;5.18;;;3.58;;
45944;SDS011;31655;48.972;10.686;2024-02-26T11:27:27;7.13;;;3.33;;
45944;SDS011;31655;48.972;10.686;2024-02-26T11:29:58;2.03;;;1.35;;
45944;SDS011;31655;48.972;10.686;2024-02-26T11:32:26;1.85;;;1.23;;
45944;SDS011;31655;48.972;10.686;2024-02-26T11:34:53;2.13;;;1.35;;
45944;SDS011;31655;48.972;10.686;2024-02-26T11:37:19;2.05;;;1.50;;
45944;SDS011;31655;48.972;10.686;2024-02-26T11:39:45;2.40;;;1.73;;
45944;SDS011;31655;48.972;10.686;2024-02-26T11:42:13;2.90;;;1.40;;
45944;SDS011;31655;48.972;10.686;2024-02-26T11:44:40;3.10;;;1.75;;
45944;SDS011;31655;48.972;10.686;2024-02-26T11:49:35;3.17;;;1.15;;
45944;SDS011;31655;48.972;10.686;2024-02-26T11:52:02;2.10;;;1.30;;
45944;SDS011;31655;48.972;10.686;2024-02-26T11:54:44;4.68;;;2.45;;
45944;SDS011;31655;48.972;10.686;2024-02-26T11:59:51;2.78;;;1.50;;
45944;SDS011;31655;48.972;10.686;2024-02-26T12:05:05;4.30;;;1.90;;
45944;SDS011;31655;48.972;10.686;2024-02-26T12:07:53;2.63;;;1.65;;
45944;SDS011;31655;48.972;10.686;2024-02-26T12:10:25;5.25;;;1.63;;
45944;SDS011;31655;48.972;10.686;2024-02-26T12:12:59;2.50;;;1.50;;
45944;SDS011;31655;48.972;10.686;2024-02-26T12:15:36;7.73;;;4.33;;
45944;SDS011;31655;48.972;10.686;2024-02-26T12:18:02;3.15;;;2.15;;
45944;SDS011;31655;48.972;10.686;2024-02-26T12:20:29;2.38;;;2.13;;
45944;SDS011;31655;48.972;10.686;2024-02-26T12:22:55;2.10;;;1.60;;
45944;SDS011;31655;48.972;10.686;2024-02-26T12:25:23;4.68;;;2.10;;
45944;SDS011;31655;48.972;10.686;2024-02-26T12:27:51;2.72;;;2.00;;
45944;SDS011;31655;48.972;10.686;2024-02-26T12:30:16;6.05;;;1.88;;
45944;SDS011;31655;48.972;10.686;2024-02-26T12:32:43;3.17;;;2.10;;
45944;SDS011;31655;48.972;10.686;2024-02-26T12:35:08;3.70;;;1.83;;
45944;SDS011;31655;48.972;10.686;2024-02-26T12:37:34;6.05;;;2.70;;
45944;SDS011;31655;48.972;10.686;2024-02-26T12:40:02;1.92;;;1.70;;
45944;SDS011;31655;48.972;10.686;2024-02-26T12:42:30;4.35;;;2.20;;
45944;SDS011;31655;48.972;10.686;2024-02-26T12:44:58;4.90;;;2.72;;
45944;SDS011;31655;48.972;10.686;2024-02-26T12:47:24;3.40;;;2.40;;
45944;SDS011;31655;48.972;10.686;2024-02-26T12:49:49;7.53;;;3.63;;
45944;SDS011;31655;48.972;10.686;2024-02-26T12:52:16;9.38;;;4.10;;
45944;SDS011;31655;48.972;10.686;2024-02-26T12:54:42;8.70;;;4.55;;
45944;SDS011;31655;48.972;10.686;2024-02-26T12:57:09;7.35;;;3.08;;
45944;SDS011;31655;48.972;10.686;2024-02-26T12:59:35;5.60;;;3.67;;
45944;SDS011;31655;48.972;10.686;2024-02-26T13:02:01;8.73;;;3.15;;
45944;SDS011;31655;48.972;10.686;2024-02-26T13:04:29;5.13;;;3.22;;
45944;SDS011;31655;48.972;10.686;2024-02-26T13:06:55;6.45;;;3.33;;
45944;SDS011;31655;48.972;10.686;2024-02-26T13:09:27;5.03;;;3.40;;
45944;SDS011;31655;48.972;10.686;2024-02-26T13:11:53;6.13;;;3.25;;
45944;SDS011;31655;48.972;10.686;2024-02-26T13:14:20;4.50;;;2.78;;
45944;SDS011;31655;48.972;10.686;2024-02-26T13:16:54;4.95;;;2.55;;
45944;SDS011;31655;48.972;10.686;2024-02-26T13:19:21;5.15;;;2.65;;
45944;SDS011;31655;48.972;10.686;2024-02-26T13:21:46;2.83;;;2.25;;
45944;SDS011;31655;48.972;10.686;2024-02-26T13:24:15;5.50;;;3.05;;
45944;SDS011;31655;48.972;10.686;2024-02-26T13:26:41;6.03;;;2.42;;
45944;SDS011;31655;48.972;10.686;2024-02-26T13:29:07;4.53;;;2.78;;
45944;SDS011;31655;48.972;10.686;2024-02-26T13:31:39;3.47;;;2.22;;
45944;SDS011;31655;48.972;10.686;2024-02-26T13:34:05;8.73;;;3.47;;
45944;SDS011;31655;48.972;10.686;2024-02-26T13:36:30;4.75;;;2.58;;
45944;SDS011;31655;48.972;10.686;2024-02-26T13:38:56;4.38;;;2.58;;
45944;SDS011;31655;48.972;10.686;2024-02-26T13:41:22;9.05;;;2.28;;
45944;SDS011;31655;48.972;10.686;2024-02-26T13:43:48;6.72;;;2.95;;
45944;SDS011;31655;48.972;10.686;2024-02-26T13:46:14;2.42;;;1.90;;
45944;SDS011;31655;48.972;10.686;2024-02-26T13:48:41;6.07;;;2.13;;
45944;SDS011;31655;48.972;10.686;2024-02-26T13:51:06;3.33;;;1.98;;
45944;SDS011;31655;48.972;10.686;2024-02-26T13:53:32;2.70;;;2.15;;
45944;SDS011;31655;48.972;10.686;2024-02-26T13:55:58;2.92;;;2.20;;
45944;SDS011;31655;48.972;10.686;2024-02-26T13:58:26;4.25;;;1.65;;
45944;SDS011;31655;48.972;10.686;2024-02-26T14:00:52;2.88;;;2.00;;
45944;SDS011;31655;48.972;10.686;2024-02-26T14:03:19;2.15;;;1.33;;
45944;SDS011;31655;48.972;10.686;2024-02-26T14:05:45;2.08;;;1.38;;
45944;SDS011;31655;48.972;10.686;2024-02-26T14:08:11;2.08;;;1.40;;
45944;SDS011;31655;48.972;10.686;2024-02-26T14:10:37;3.03;;;1.60;;
45944;SDS011;31655;48.972;10.686;2024-02-26T14:13:04;2.92;;;1.60;;
45944;SDS011;31655;48.972;10.686;2024-02-26T14:15:29;4.93;;;2.00;;
45944;SDS011;31655;48.972;10.686;2024-02-26T14:17:55;3.83;;;1.30;;
45944;SDS011;31655;48.972;10.686;2024-02-26T14:20:22;3.88;;;1.40;;
45944;SDS011;31655;48.972;10.686;2024-02-26T14:22:51;1.90;;;1.00;;
45944;SDS011;31655;48.972;10.686;2024-02-26T14:25:18;1.63;;;1.42;;
45944;SDS011;31655;48.972;10.686;2024-02-26T14:27:45;4.32;;;1.50;;
45944;SDS011;31655;48.972;10.686;2024-02-26T14:30:11;1.48;;;1.02;;